Cartoogechaye, North Carolina
Current Conditions -  °F | °C
As of 2:30 AM on Wednesday 26 Nov 2014 (Local Time) from KRHP Reporting Station
Overcast Overcast  
Wind Chill: 42°   Ceiling: 10000
Heat Index: 42°   Visibility: 10mi
Dew Point: 37°   Wind: 0mph
Humidity: 82%   Direction: NA
Pressure: 29.95"   Gusts: NA
Location:  35.1737°N, 83.4215°W
Report Text: KRHP 260730Z AUTO 00000KT 10SM OVC100 06/03 A2995 RMK AO2 T00560028
Loading
Personal Weather Stations






























Interactive Weather Map New forecast layout! Learn more

10-Day Weather Forecast

Advertisements
Track Severe Weather on mobile